Terminal Aerodrome Forecast
Issued by NWS

Home | Current Version | Previous Version | Text Only | Print | Product List | Glossary On
Versions: 1 2 3 4 5 6 7 8 9 10 11 12 13 14 15 16 17 18 19 20 21 22 23 24 25
191
FTUS43 KLOT 061139
TAFDPA
TAF
KDPA 061139Z 0612/0712 21005KT 6SM BR SCT045
     FM061530 22008KT P6SM BKN030
     FM061900 24009KT P6SM BKN035
     FM070000 21006KT P6SM BKN120
     FM070700 22009KT P6SM OVC080=

USA.gov is the U.S. government's official web portal to all federal, state and local government web resources and services.